Washington, District of Columbia
Traffic Map
Current Weather Conditions
Washington, District of Columbia
Scattered Clouds
Scattered Clouds
28°
Feels Like: 28°
Wind Chill: 28° Ceiling: Unl
Heat Index: 28° Visibility: 10mi
Dew Point: Wind: 6mph
Humidity: 28% Direction: 350° (N)
Pressure: 29.96in Gusts: 0mph
Raw Report DataKDCA 181852Z 35005KT 10SM FEW065 SCT250 28/08 A2996 RMK AO2 SLP145 T02780078 $
Traffic Incident Summary
Active as of:
Severity:
Category:
InformationThere was an issue retrieving the traffic information for this location. Please try a different location or try again shortly.
Advertisements
Track Severe Weather on mobile